Time;durP1;ratioP1;P1;durP2;ratioP2;P2;SDS_P1;SDS_P2;PMS_P1;PMS_P2;Temp;Humidity;BMP_temperature;BMP_pressure;BME280_temperature;BME280_humidity;BME280_pressure;Samples;Min_cycle;Max_cycle;Signal;HPM_P1;HPM_P2
2023/08/27 00:00:28;;;;;;;7.82;4.47;;;16.20;99.90;;;;;;5022799;28;20033;-58
2023/08/27 00:02:54;;;;;;;7.47;4.13;;;16.20;99.90;;;;;;5027842;28;20038;-57
2023/08/27 00:05:19;;;;;;;6.25;4.20;;;16.20;99.90;;;;;;5020305;28;20107;-56
2023/08/27 00:07:45;;;;;;;7.30;3.85;;;16.20;99.90;;;;;;5028958;28;20083;-57
2023/08/27 00:10:11;;;;;;;8.05;4.03;;;16.10;99.90;;;;;;5028069;28;20049;-58
2023/08/27 00:12:37;;;;;;;7.45;3.95;;;16.10;99.90;;;;;;5030029;28;20121;-57
2023/08/27 00:15:03;;;;;;;10.30;4.45;;;16.10;99.90;;;;;;5032102;28;20037;-57
2023/08/27 00:17:29;;;;;;;7.13;4.30;;;16.10;99.90;;;;;;5020309;28;20124;-58
2023/08/27 00:19:55;;;;;;;7.07;4.45;;;16.10;99.90;;;;;;5024371;28;20033;-57
2023/08/27 00:22:21;;;;;;;9.15;4.45;;;16.10;99.90;;;;;;5036981;28;20116;-57
2023/08/27 00:24:47;;;;;;;10.30;4.50;;;16.10;99.90;;;;;;5029617;28;20143;-58
2023/08/27 00:27:12;;;;;;;8.45;4.63;;;15.90;99.90;;;;;;5029435;28;20057;-57
2023/08/27 00:29:38;;;;;;;5.85;4.55;;;15.90;99.90;;;;;;5029121;28;20030;-57
2023/08/27 00:32:04;;;;;;;8.45;4.55;;;15.90;99.90;;;;;;5029107;28;20030;-58
2023/08/27 00:34:34;;;;;;;7.60;4.32;;;15.80;99.90;;;;;;5029219;28;20315;-57
2023/08/27 00:37:01;;;;;;;7.70;5.07;;;15.80;99.90;;;;;;5029828;28;20025;-58
2023/08/27 00:39:29;;;;;;;6.65;4.57;;;15.80;99.90;;;;;;5040932;28;20128;-57
2023/08/27 00:41:54;;;;;;;7.55;4.60;;;15.80;99.90;;;;;;5029688;28;20048;-56
2023/08/27 00:44:20;;;;;;;7.70;4.57;;;15.80;99.90;;;;;;5028964;28;20037;-57
2023/08/27 00:46:48;;;;;;;11.10;4.85;;;15.80;99.90;;;;;;5028608;28;20199;-57
2023/08/27 00:49:15;;;;;;;9.48;4.60;;;15.80;99.90;;;;;;5029659;28;20406;-58
2023/08/27 00:51:42;;;;;;;6.57;4.43;;;15.80;99.90;;;;;;5029641;28;20029;-57
2023/08/27 00:54:08;;;;;;;7.80;4.30;;;15.60;99.90;;;;;;5029326;28;20149;-57
2023/08/27 00:56:34;;;;;;;7.80;4.97;;;15.60;99.90;;;;;;5028060;28;20041;-58
2023/08/27 00:59:01;;;;;;;9.23;4.85;;;15.70;99.90;;;;;;5027220;28;20045;-57
2023/08/27 01:01:28;;;;;;;7.70;4.90;;;15.70;99.90;;;;;;5029048;28;20044;-57
2023/08/27 01:03:53;;;;;;;8.82;4.65;;;15.80;99.90;;;;;;5028857;28;20029;-57
2023/08/27 01:06:19;;;;;;;7.47;4.68;;;15.70;99.90;;;;;;5029272;28;20346;-57
2023/08/27 01:09:01;;;;;;;8.13;4.57;;;15.60;99.90;;;;;;5028588;28;20041;-58
2023/08/27 01:11:50;;;;;;;9.60;5.18;;;15.70;99.90;;;;;;5032338;28;21094;-57
2023/08/27 01:14:16;;;;;;;8.18;4.88;;;15.70;99.90;;;;;;5026060;28;20049;-59
2023/08/27 01:16:44;;;;;;;7.25;4.85;;;15.80;99.90;;;;;;5026238;28;20045;-58
2023/08/27 01:19:14;;;;;;;7.13;4.60;;;15.70;99.90;;;;;;5012104;28;20496;-58
2023/08/27 01:21:40;;;;;;;7.53;5.20;;;15.60;99.90;;;;;;5024796;28;20057;-57
2023/08/27 01:24:06;;;;;;;9.13;5.18;;;15.50;99.90;;;;;;5027191;28;20056;-57
2023/08/27 01:27:10;;;;;;;7.18;5.10;;;15.50;99.90;;;;;;5029014;28;20068;-56
2023/08/27 01:29:49;;;;;;;7.82;4.95;;;15.50;99.90;;;;;;5021917;28;20172;-58
2023/08/27 01:32:37;;;;;;;6.13;4.50;;;15.40;99.90;;;;;;5024402;28;20037;-57
2023/08/27 01:35:06;;;;;;;6.60;5.00;;;15.50;99.90;;;;;;5011221;28;20543;-57
2023/08/27 01:37:32;;;;;;;7.50;4.93;;;15.50;99.90;;;;;;5025459;28;20299;-57
2023/08/27 01:40:05;;;;;;;6.13;4.80;;;15.50;99.90;;;;;;5025896;28;20554;-57
2023/08/27 01:42:31;;;;;;;7.53;5.05;;;15.40;99.90;;;;;;5008259;28;20044;-57
2023/08/27 01:44:56;;;;;;;8.00;5.22;;;15.40;99.90;;;;;;5026129;28;20045;-57
2023/08/27 01:47:22;;;;;;;8.38;4.90;;;15.40;99.90;;;;;;5025203;28;20123;-57
2023/08/27 01:49:52;;;;;;;9.60;4.60;;;15.70;99.90;;;;;;5025564;28;20306;-57
2023/08/27 01:52:17;;;;;;;8.23;5.07;;;15.50;99.90;;;;;;5016270;28;20045;-58
2023/08/27 01:54:43;;;;;;;8.07;5.20;;;15.50;99.90;;;;;;5024244;28;20052;-56
2023/08/27 01:57:08;;;;;;;8.35;5.38;;;15.70;99.90;;;;;;5025174;28;20029;-57
2023/08/27 01:59:34;;;;;;;8.40;5.85;;;15.70;99.90;;;;;;5026309;28;20042;-58
2023/08/27 02:01:59;;;;;;;10.48;5.53;;;15.70;99.90;;;;;;5025483;28;20401;-57
2023/08/27 02:04:25;;;;;;;6.80;4.90;;;15.60;99.90;;;;;;5023861;28;20030;-57
2023/08/27 02:06:50;;;;;;;7.97;5.00;;;15.40;99.90;;;;;;5024636;28;20033;-58
2023/08/27 02:09:16;;;;;;;9.38;5.78;;;15.30;99.90;;;;;;5024317;28;20025;-57
2023/08/27 02:11:45;;;;;;;7.70;4.97;;;15.40;99.90;;;;;;5024990;28;20104;-57
2023/08/27 02:14:10;;;;;;;7.78;4.95;;;15.40;99.90;;;;;;5024573;28;20454;-58
2023/08/27 02:16:38;;;;;;;6.03;4.35;;;15.30;99.90;;;;;;5025283;28;20044;-57
2023/08/27 02:19:03;;;;;;;11.13;4.93;;;15.10;99.90;;;;;;5024188;28;20041;-56
2023/08/27 02:21:29;;;;;;;6.75;4.38;;;15.10;99.90;;;;;;5016034;28;20040;-57
2023/08/27 02:23:55;;;;;;;8.45;4.60;;;15.20;99.90;;;;;;5024337;28;20044;-57
2023/08/27 02:26:21;;;;;;;7.60;4.68;;;15.10;99.90;;;;;;5023138;28;20072;-56
2023/08/27 02:28:47;;;;;;;6.65;4.28;;;15.00;99.90;;;;;;5025375;28;20043;-56
2023/08/27 02:31:13;;;;;;;7.38;4.07;;;15.00;99.90;;;;;;5024252;28;20044;-56
2023/08/27 02:33:39;;;;;;;10.77;5.05;;;15.00;99.90;;;;;;5025629;28;20469;-59
2023/08/27 02:36:05;;;;;;;8.23;4.45;;;14.90;99.90;;;;;;5018748;28;20044;-59
2023/08/27 02:38:32;;;;;;;10.48;4.60;;;15.00;99.90;;;;;;5026071;28;20116;-56
2023/08/27 02:40:57;;;;;;;8.85;4.82;;;15.00;99.90;;;;;;5024555;28;20030;-59
2023/08/27 02:43:23;;;;;;;6.90;4.75;;;15.10;99.90;;;;;;5024725;28;20034;-57
2023/08/27 02:45:48;;;;;;;7.90;4.40;;;15.00;99.90;;;;;;5025145;28;20128;-59
2023/08/27 02:48:14;;;;;;;6.90;4.43;;;15.00;99.90;;;;;;5022791;28;20033;-56
2023/08/27 02:50:39;;;;;;;5.93;4.47;;;14.80;99.90;;;;;;5023703;28;20084;-57
2023/08/27 02:53:05;;;;;;;8.30;4.47;;;14.80;99.90;;;;;;5024436;28;20136;-58
2023/08/27 02:55:31;;;;;;;11.45;4.82;;;14.90;99.90;;;;;;5024564;28;20037;-57
2023/08/27 02:57:58;;;;;;;6.80;4.65;;;14.80;99.90;;;;;;5005784;28;20470;-59
2023/08/27 03:00:24;;;;;;;8.73;4.90;;;14.90;99.90;;;;;;5020178;28;20080;-59
2023/08/27 03:02:49;;;;;;;7.15;4.63;;;15.00;99.90;;;;;;5023450;28;20076;-57
2023/08/27 03:05:15;;;;;;;6.97;4.82;;;15.10;99.90;;;;;;5023945;28;20455;-58
2023/08/27 03:07:40;;;;;;;8.88;4.63;;;14.90;99.90;;;;;;5024196;28;20396;-58
2023/08/27 03:10:07;;;;;;;7.22;4.68;;;14.90;99.90;;;;;;5022634;28;20068;-58
2023/08/27 03:12:32;;;;;;;12.07;4.97;;;14.90;99.90;;;;;;5024715;28;20083;-58
2023/08/27 03:14:58;;;;;;;6.45;4.53;;;14.90;99.90;;;;;;5006330;28;20500;-58
2023/08/27 03:17:23;;;;;;;10.95;5.38;;;14.90;99.90;;;;;;5023540;28;20036;-58
2023/08/27 03:19:49;;;;;;;8.45;4.97;;;15.00;99.90;;;;;;5019703;28;20037;-58
2023/08/27 03:22:14;;;;;;;7.60;5.88;;;14.90;99.90;;;;;;5014165;28;20121;-58
2023/08/27 03:24:40;;;;;;;11.02;5.20;;;14.90;99.90;;;;;;5022982;28;20082;-59
2023/08/27 03:27:07;;;;;;;9.32;5.20;;;14.80;99.90;;;;;;5034019;28;20111;-59
2023/08/27 03:29:32;;;;;;;8.75;5.75;;;14.80;99.90;;;;;;5024196;28;20484;-58
2023/08/27 03:31:58;;;;;;;8.60;5.90;;;14.90;99.90;;;;;;5022099;28;20091;-58
2023/08/27 03:34:23;;;;;;;10.10;5.07;;;14.90;99.90;;;;;;5023387;28;20403;-58
2023/08/27 03:36:49;;;;;;;8.18;5.38;;;14.80;99.90;;;;;;5006569;28;20045;-59
2023/08/27 03:39:15;;;;;;;7.22;4.90;;;14.80;99.90;;;;;;5023736;28;20536;-57
2023/08/27 03:41:41;;;;;;;10.60;5.40;;;14.80;99.90;;;;;;5019473;28;20048;-58
2023/08/27 03:44:06;;;;;;;7.95;5.32;;;14.80;99.90;;;;;;5021132;28;20041;-55
2023/08/27 03:46:32;;;;;;;8.70;5.60;;;14.70;99.90;;;;;;5023669;28;20176;-55
2023/08/27 03:49:01;;;;;;;8.05;5.10;;;14.70;99.90;;;;;;5023749;28;20040;-58
2023/08/27 03:51:28;;;;;;;9.20;5.35;;;14.60;99.90;;;;;;5023226;28;20449;-57
2023/08/27 03:53:57;;;;;;;9.07;5.88;;;14.70;99.90;;;;;;5022687;28;20064;-55
2023/08/27 03:56:23;;;;;;;12.50;6.15;;;14.60;99.90;;;;;;5023046;28;20112;-57
2023/08/27 03:58:49;;;;;;;10.88;5.55;;;14.70;99.90;;;;;;5008629;28;20124;-57
2023/08/27 04:01:14;;;;;;;9.65;5.40;;;14.80;99.90;;;;;;5022522;28;20056;-57
2023/08/27 04:03:40;;;;;;;9.30;5.28;;;14.80;99.90;;;;;;5023061;28;20123;-57
2023/08/27 04:06:07;;;;;;;9.43;5.88;;;14.90;99.90;;;;;;5022806;28;20052;-57
2023/08/27 04:08:32;;;;;;;9.57;5.88;;;14.90;99.90;;;;;;5006424;28;20068;-57
2023/08/27 04:10:58;;;;;;;11.23;6.22;;;14.90;99.90;;;;;;5021681;28;20030;-58
2023/08/27 04:13:23;;;;;;;10.40;6.05;;;15.10;99.90;;;;;;5022564;28;20030;-56
2023/08/27 04:15:59;;;;;;;9.35;5.70;;;15.10;99.90;;;;;;5022739;28;20030;-58
2023/08/27 04:18:26;;;;;;;7.82;5.93;;;15.00;99.90;;;;;;5023107;28;20144;-57
2023/08/27 04:20:52;;;;;;;7.57;5.60;;;15.00;99.90;;;;;;5021314;28;20604;-57
2023/08/27 04:23:18;;;;;;;9.55;5.95;;;14.90;99.90;;;;;;5006748;28;20050;-57
2023/08/27 04:25:44;;;;;;;9.98;6.32;;;15.00;99.90;;;;;;5021616;28;20046;-57
2023/08/27 04:28:09;;;;;;;8.98;5.72;;;15.20;99.90;;;;;;5011076;28;20037;-56
2023/08/27 04:30:35;;;;;;;10.40;5.72;;;15.20;99.90;;;;;;5021872;28;20033;-58
2023/08/27 04:33:01;;;;;;;8.23;5.53;;;15.20;99.90;;;;;;5021112;28;20061;-57
2023/08/27 04:35:26;;;;;;;9.68;5.68;;;15.20;99.90;;;;;;5022232;28;20032;-58
2023/08/27 04:37:52;;;;;;;12.25;5.43;;;15.20;99.90;;;;;;5025704;28;20033;-56
2023/08/27 04:40:18;;;;;;;8.35;5.40;;;15.20;99.90;;;;;;5018544;28;20018;-58
2023/08/27 04:42:43;;;;;;;10.13;5.43;;;15.20;99.90;;;;;;5027338;28;20037;-58
2023/08/27 04:45:10;;;;;;;11.00;5.70;;;15.20;99.90;;;;;;5033602;28;20368;-58
2023/08/27 04:47:35;;;;;;;11.25;5.82;;;15.30;99.90;;;;;;5023123;28;20314;-57
2023/08/27 04:50:01;;;;;;;7.47;5.60;;;15.30;99.90;;;;;;5029478;28;20036;-57
2023/08/27 04:52:26;;;;;;;13.13;5.97;;;15.40;99.90;;;;;;5020593;28;20430;-57
2023/08/27 04:54:52;;;;;;;9.52;5.80;;;15.40;99.90;;;;;;5022980;28;20037;-57
2023/08/27 04:57:18;;;;;;;9.07;5.57;;;15.40;99.90;;;;;;5032993;28;20082;-57
2023/08/27 04:59:43;;;;;;;9.35;5.40;;;15.30;99.90;;;;;;5026747;28;20052;-57
2023/08/27 05:02:09;;;;;;;10.20;5.80;;;15.30;99.90;;;;;;5025817;28;20119;-58
2023/08/27 05:04:35;;;;;;;9.57;5.18;;;15.30;99.90;;;;;;5024382;28;20398;-58
2023/08/27 05:07:00;;;;;;;10.80;5.90;;;15.10;99.90;;;;;;5037122;28;20124;-58
2023/08/27 05:09:26;;;;;;;8.63;5.18;;;15.10;99.90;;;;;;5020151;28;20491;-58
2023/08/27 05:11:52;;;;;;;9.40;5.45;;;15.30;99.90;;;;;;5035661;28;20037;-57
2023/08/27 05:14:18;;;;;;;9.95;5.30;;;15.30;99.90;;;;;;5029379;28;20400;-59
2023/08/27 05:16:44;;;;;;;11.68;5.72;;;15.30;99.90;;;;;;5016875;28;20041;-58
2023/08/27 05:19:09;;;;;;;15.27;6.15;;;15.30;99.90;;;;;;5015443;28;20046;-57
2023/08/27 05:21:35;;;;;;;12.43;6.00;;;15.40;99.90;;;;;;5029823;28;20032;-59
2023/08/27 05:24:01;;;;;;;11.00;6.53;;;15.30;99.90;;;;;;5032241;28;20029;-58
2023/08/27 05:26:27;;;;;;;11.95;6.32;;;15.40;99.90;;;;;;5027809;28;20079;-59
2023/08/27 05:28:52;;;;;;;10.15;6.63;;;15.40;99.90;;;;;;5026349;28;20064;-58
2023/08/27 05:31:18;;;;;;;9.63;6.20;;;15.40;99.90;;;;;;5025937;28;20030;-58
2023/08/27 05:33:44;;;;;;;16.30;7.53;;;15.60;99.90;;;;;;5026237;28;20037;-58
2023/08/27 05:36:09;;;;;;;12.40;6.65;;;15.50;99.90;;;;;;5023945;28;20045;-59
2023/08/27 05:38:35;;;;;;;12.48;6.88;;;15.50;99.90;;;;;;5025397;28;20040;-58
2023/08/27 05:41:01;;;;;;;12.90;6.75;;;15.50;99.90;;;;;;5025777;28;20075;-59
2023/08/27 05:43:26;;;;;;;13.43;7.00;;;15.50;99.90;;;;;;5025475;28;20060;-58
2023/08/27 05:45:52;;;;;;;9.40;6.35;;;15.50;99.90;;;;;;5025827;28;20091;-58
2023/08/27 05:48:18;;;;;;;11.50;6.93;;;15.50;99.90;;;;;;5024587;28;20121;-59
2023/08/27 05:50:44;;;;;;;11.00;6.53;;;15.50;99.90;;;;;;5024778;28;20056;-57
2023/08/27 05:53:11;;;;;;;11.90;6.50;;;15.50;99.90;;;;;;5024803;28;20064;-59
2023/08/27 05:55:36;;;;;;;9.32;6.13;;;15.50;99.90;;;;;;5025694;28;20461;-58
2023/08/27 05:58:03;;;;;;;10.48;6.20;;;15.40;99.90;;;;;;5024661;28;20076;-59
2023/08/27 06:00:29;;;;;;;13.98;6.32;;;15.50;99.90;;;;;;5024646;28;20128;-58
2023/08/27 06:02:55;;;;;;;11.75;7.35;;;15.60;99.90;;;;;;5024712;28;20551;-60
2023/08/27 06:05:20;;;;;;;10.48;6.63;;;15.70;99.90;;;;;;5028970;28;20021;-57
2023/08/27 06:07:46;;;;;;;9.80;7.00;;;15.70;99.90;;;;;;5025456;28;20069;-59
2023/08/27 06:10:11;;;;;;;12.25;7.57;;;15.70;99.90;;;;;;5024256;28;20033;-59
2023/08/27 06:12:37;;;;;;;11.25;6.80;;;15.90;99.90;;;;;;5025276;28;20440;-59
2023/08/27 06:15:04;;;;;;;10.50;6.90;;;16.00;99.90;;;;;;5024077;28;20029;-58
2023/08/27 06:17:30;;;;;;;9.87;6.47;;;15.90;99.90;;;;;;5019743;28;20627;-57
2023/08/27 06:19:55;;;;;;;11.48;7.18;;;15.90;99.90;;;;;;5021896;28;20048;-60
2023/08/27 06:22:21;;;;;;;13.73;7.50;;;16.00;99.90;;;;;;5031292;28;20038;-59
2023/08/27 06:24:47;;;;;;;13.00;7.50;;;15.90;99.90;;;;;;5029095;28;20037;-57
2023/08/27 06:27:16;;;;;;;11.50;7.15;;;15.90;99.90;;;;;;5025697;28;20033;-58
2023/08/27 06:29:45;;;;;;;12.93;7.30;;;15.70;99.90;;;;;;5027368;28;20048;-57
2023/08/27 06:32:10;;;;;;;12.07;7.03;;;15.70;99.90;;;;;;5031850;28;20033;-58
2023/08/27 06:34:36;;;;;;;15.15;7.70;;;15.70;99.90;;;;;;5027484;28;20073;-58
2023/08/27 06:37:02;;;;;;;12.23;7.68;;;15.90;99.90;;;;;;5024101;28;20026;-57
2023/08/27 06:39:28;;;;;;;13.85;8.52;;;16.00;99.90;;;;;;5020869;28;20129;-58
2023/08/27 06:41:54;;;;;;;11.25;8.35;;;16.20;99.90;;;;;;5016370;28;20049;-58
2023/08/27 06:44:19;;;;;;;14.43;8.45;;;16.10;99.90;;;;;;5025394;28;20033;-58
2023/08/27 06:46:45;;;;;;;11.68;8.35;;;16.10;99.90;;;;;;5028244;28;20353;-56
2023/08/27 06:49:11;;;;;;;13.63;7.82;;;16.20;99.90;;;;;;5020566;28;20030;-58
2023/08/27 06:51:36;;;;;;;12.90;7.68;;;16.20;99.90;;;;;;5023499;28;20508;-58
2023/08/27 06:54:03;;;;;;;16.63;8.43;;;16.30;99.90;;;;;;5021247;28;20061;-58
2023/08/27 06:56:28;;;;;;;12.98;7.95;;;16.40;99.90;;;;;;5022219;28;20037;-58
2023/08/27 06:58:54;;;;;;;10.27;8.13;;;16.40;99.90;;;;;;5015975;28;20045;-58
2023/08/27 07:01:20;;;;;;;12.65;7.65;;;16.30;99.90;;;;;;5023231;28;20067;-56
2023/08/27 07:03:45;;;;;;;11.52;7.75;;;16.40;99.90;;;;;;5024678;28;20428;-56
2023/08/27 07:06:11;;;;;;;11.50;7.88;;;16.30;99.90;;;;;;5022965;28;20034;-57
2023/08/27 07:08:37;;;;;;;11.00;7.75;;;16.20;99.90;;;;;;5024274;28;20148;-57
2023/08/27 07:11:05;;;;;;;12.93;7.57;;;16.20;99.90;;;;;;5004375;28;20061;-55
2023/08/27 07:13:31;;;;;;;12.20;8.38;;;16.30;99.90;;;;;;5014493;28;20041;-56
2023/08/27 07:16:00;;;;;;;14.77;8.13;;;16.40;99.90;;;;;;5026692;28;20046;-57
2023/08/27 07:18:25;;;;;;;14.95;7.82;;;16.30;99.90;;;;;;5020447;28;20043;-57
2023/08/27 07:20:51;;;;;;;18.08;8.73;;;16.30;99.90;;;;;;5004696;28;20552;-57
2023/08/27 07:23:17;;;;;;;12.32;7.95;;;16.50;99.90;;;;;;5023213;28;20513;-56
2023/08/27 07:25:42;;;;;;;12.77;8.32;;;16.70;99.90;;;;;;5022058;28;20048;-56
2023/08/27 07:28:09;;;;;;;14.10;8.43;;;16.50;99.90;;;;;;5022102;28;20029;-56
2023/08/27 07:30:36;;;;;;;10.90;7.05;;;16.40;99.90;;;;;;5012046;28;20098;-56
2023/08/27 07:33:02;;;;;;;12.35;7.90;;;16.50;99.90;;;;;;5016384;28;20033;-55
2023/08/27 07:35:29;;;;;;;13.35;8.43;;;16.60;99.90;;;;;;5017885;28;20045;-56
2023/08/27 07:37:55;;;;;;;11.23;7.68;;;16.60;99.90;;;;;;5016684;28;20454;-56
2023/08/27 07:40:20;;;;;;;9.98;7.38;;;16.80;99.90;;;;;;5015765;28;20137;-55
2023/08/27 07:42:46;;;;;;;11.98;7.45;;;16.90;99.90;;;;;;5018997;28;20052;-56
2023/08/27 07:45:12;;;;;;;14.13;7.90;;;16.90;99.90;;;;;;5017089;28;20094;-56
2023/08/27 07:47:37;;;;;;;12.45;6.85;;;17.00;99.90;;;;;;5017786;28;20037;-56
2023/08/27 07:50:05;;;;;;;11.32;6.88;;;17.00;99.90;;;;;;5015261;28;20254;-56
2023/08/27 07:52:31;;;;;;;9.30;6.25;;;17.00;99.90;;;;;;5019335;28;20052;-56
2023/08/27 07:54:57;;;;;;;9.35;5.10;;;17.30;99.90;;;;;;5017617;28;20286;-56
2023/08/27 07:57:23;;;;;;;7.75;4.65;;;17.40;99.90;;;;;;5014483;28;20041;-57
2023/08/27 07:59:49;;;;;;;8.23;5.10;;;17.60;99.90;;;;;;5007326;28;20045;-55
2023/08/27 08:02:14;;;;;;;6.50;4.35;;;17.70;99.90;;;;;;5009004;28;20068;-56
2023/08/27 08:04:40;;;;;;;9.77;4.28;;;17.80;99.90;;;;;;5022683;28;20489;-57
2023/08/27 08:07:06;;;;;;;7.85;4.25;;;17.90;99.90;;;;;;5017226;28;20030;-57
2023/08/27 08:09:31;;;;;;;7.97;4.03;;;17.90;99.90;;;;;;5002141;28;20456;-55
2023/08/27 08:11:57;;;;;;;7.57;3.92;;;18.00;99.90;;;;;;5019574;28;20459;-55
2023/08/27 08:14:23;;;;;;;7.53;4.13;;;18.10;99.90;;;;;;5018735;28;20041;-57
2023/08/27 08:16:52;;;;;;;14.18;11.32;;;18.20;99.90;;;;;;5018852;28;20040;-57
2023/08/27 08:19:17;;;;;;;11.20;4.25;;;18.20;99.90;;;;;;5016645;28;20053;-58
2023/08/27 08:21:43;;;;;;;8.52;4.10;;;18.20;99.90;;;;;;4993882;28;20041;-58
2023/08/27 08:24:08;;;;;;;9.30;4.05;;;18.20;99.90;;;;;;5021849;28;20033;-57
2023/08/27 08:26:34;;;;;;;10.18;3.83;;;18.30;99.90;;;;;;5019971;28;20125;-57
2023/08/27 08:29:00;;;;;;;7.68;3.58;;;18.30;99.90;;;;;;5022303;28;20026;-58
2023/08/27 08:31:25;;;;;;;8.60;3.75;;;18.30;99.90;;;;;;5021716;28;20037;-57
2023/08/27 08:33:51;;;;;;;6.85;3.38;;;18.30;99.90;;;;;;4995786;28;20037;-57
2023/08/27 08:36:16;;;;;;;7.22;3.15;;;18.40;99.90;;;;;;5019119;28;20033;-57
2023/08/27 08:38:42;;;;;;;12.27;4.18;;;18.40;99.90;;;;;;5021579;28;20064;-57
2023/08/27 08:41:09;;;;;;;5.47;2.70;;;18.50;99.90;;;;;;5021705;28;20388;-57
2023/08/27 08:43:47;;;;;;;6.53;2.67;;;18.60;99.90;;;;;;5013039;28;20484;-57
2023/08/27 08:46:18;;;;;;;11.43;3.30;;;18.60;99.90;;;;;;5021098;28;20120;-59
2023/08/27 08:48:49;;;;;;;9.40;2.70;;;18.70;99.90;;;;;;5025697;28;20561;-58
2023/08/27 08:51:19;;;;;;;6.88;2.80;;;18.60;99.90;;;;;;5026912;28;20036;-58
2023/08/27 08:53:49;;;;;;;7.00;2.63;;;18.60;99.90;;;;;;5031940;28;20068;-59
2023/08/27 08:56:22;;;;;;;5.25;2.67;;;18.60;99.90;;;;;;5014356;28;20030;-58
2023/08/27 08:58:52;;;;;;;5.45;2.33;;;18.70;99.90;;;;;;4993601;28;20037;-59
2023/08/27 09:01:20;;;;;;;7.20;2.65;;;18.80;99.90;;;;;;5023556;28;20176;-58
2023/08/27 09:03:47;;;;;;;9.70;2.35;;;18.70;99.90;;;;;;5027426;28;20159;-58
2023/08/27 09:06:16;;;;;;;6.45;2.53;;;18.90;99.90;;;;;;5025320;28;20156;-59
2023/08/27 09:08:42;;;;;;;7.20;2.40;;;19.00;99.90;;;;;;5023628;28;20489;-59
2023/08/27 09:11:08;;;;;;;5.95;2.67;;;19.10;99.90;;;;;;5018544;28;20056;-57
2023/08/27 09:13:34;;;;;;;7.97;2.50;;;19.20;99.90;;;;;;5024487;28;20032;-58
2023/08/27 09:16:00;;;;;;;8.38;2.55;;;19.20;99.90;;;;;;5028478;28;20095;-59
2023/08/27 09:18:26;;;;;;;6.93;2.28;;;19.40;99.90;;;;;;5025236;28;20041;-59
2023/08/27 09:20:51;;;;;;;6.03;2.20;;;19.50;99.90;;;;;;5024898;28;20033;-59
2023/08/27 09:23:17;;;;;;;4.63;2.00;;;19.40;99.90;;;;;;5020239;28;20037;-59
2023/08/27 09:25:43;;;;;;;8.68;2.25;;;19.30;99.90;;;;;;5016933;28;20038;-59
2023/08/27 09:28:10;;;;;;;4.53;2.40;;;19.30;99.90;;;;;;5001128;28;20433;-59
2023/08/27 09:30:36;;;;;;;6.63;2.20;;;19.20;99.90;;;;;;5016508;28;20103;-59
2023/08/27 09:33:03;;;;;;;7.97;2.47;;;19.20;99.90;;;;;;5013106;28;20430;-58
2023/08/27 09:35:41;;;;;;;7.22;2.38;;;19.20;99.90;;;;;;5020814;28;20030;-59
2023/08/27 09:38:11;;;;;;;5.13;2.15;;;19.30;99.90;;;;;;5015790;28;20120;-58
2023/08/27 09:40:37;;;;;;;9.52;2.83;;;19.40;99.90;;;;;;5017718;28;20029;-59
2023/08/27 09:43:08;;;;;;;8.15;2.35;;;19.60;99.90;;;;;;5015856;28;20038;-59
2023/08/27 09:45:38;;;;;;;6.07;2.40;;;19.70;99.90;;;;;;5015957;28;20040;-58
2023/08/27 09:48:04;;;;;;;8.75;1.90;;;19.70;99.90;;;;;;5021125;28;20033;-59
2023/08/27 09:50:31;;;;;;;7.20;2.20;;;19.90;99.90;;;;;;5003783;28;20034;-58
2023/08/27 09:53:12;;;;;;;9.35;2.53;;;20.00;99.90;;;;;;5022073;28;20041;-58
2023/08/27 09:55:39;;;;;;;8.35;2.20;;;19.90;99.90;;;;;;5020718;28;20500;-59
2023/08/27 09:58:06;;;;;;;5.75;2.28;;;19.80;99.90;;;;;;5014166;28;20065;-59
2023/08/27 10:00:33;;;;;;;8.95;2.50;;;19.90;99.90;;;;;;5015613;28;20042;-59
2023/08/27 10:02:58;;;;;;;7.50;2.42;;;20.00;99.90;;;;;;5012672;28;20100;-59
2023/08/27 10:05:29;;;;;;;6.70;1.95;;;19.90;99.90;;;;;;5017694;28;20033;-57
2023/08/27 10:07:59;;;;;;;6.45;2.22;;;19.70;99.90;;;;;;5029442;28;20540;-57
2023/08/27 10:10:25;;;;;;;10.00;3.00;;;19.60;99.90;;;;;;5022457;28;20034;-57
2023/08/27 10:12:52;;;;;;;6.20;2.33;;;19.60;99.90;;;;;;5025366;28;20033;-58
2023/08/27 10:15:18;;;;;;;5.82;1.98;;;19.80;99.90;;;;;;5014181;28;20360;-58
2023/08/27 10:17:45;;;;;;;6.82;2.33;;;19.80;99.90;;;;;;5010725;28;20045;-59
2023/08/27 10:20:11;;;;;;;7.95;2.50;;;19.80;99.90;;;;;;5023733;28;20254;-58
2023/08/27 10:22:37;;;;;;;8.82;2.50;;;19.60;99.90;;;;;;5024017;28;20092;-58
2023/08/27 10:25:06;;;;;;;6.90;2.40;;;19.40;99.90;;;;;;5024572;28;20326;-58
2023/08/27 10:27:32;;;;;;;6.45;2.30;;;19.50;99.90;;;;;;5024889;28;20037;-58
2023/08/27 10:29:59;;;;;;;9.95;2.25;;;19.50;99.90;;;;;;5024458;28;20034;-58
2023/08/27 10:32:24;;;;;;;7.20;2.45;;;19.50;99.90;;;;;;5021498;28;20561;-58
2023/08/27 10:34:50;;;;;;;9.23;2.50;;;19.50;99.90;;;;;;5012607;28;20132;-58
2023/08/27 10:37:18;;;;;;;5.90;2.10;;;19.40;99.90;;;;;;5025388;28;20124;-59
2023/08/27 10:39:44;;;;;;;10.13;2.40;;;19.40;99.90;;;;;;5024484;28;20114;-58
2023/08/27 10:42:30;;;;;;;5.43;2.10;;;19.40;99.90;;;;;;5024178;28;20125;-58
2023/08/27 10:45:18;;;;;;;8.93;2.30;;;19.50;99.90;;;;;;5012919;28;20484;-59
2023/08/27 10:48:07;;;;;;;10.70;2.10;;;19.60;99.90;;;;;;5024399;28;20560;-58
2023/08/27 10:50:51;;;;;;;5.50;1.90;;;19.70;99.90;;;;;;5024352;28;20470;-57
2023/08/27 10:53:18;;;;;;;4.30;1.80;;;19.70;99.90;;;;;;5023403;28;20177;-58
2023/08/27 10:55:50;;;;;;;6.40;1.70;;;19.70;99.90;;;;;;5024335;28;20541;-58
2023/08/27 10:58:21;;;;;;;6.60;1.50;;;19.70;99.90;;;;;;5023745;28;20034;-58
2023/08/27 11:01:09;;;;;;;6.60;1.67;;;19.70;99.90;;;;;;5020747;28;20021;-58
2023/08/27 11:03:55;;;;;;;8.95;1.50;;;19.70;99.90;;;;;;5016409;28;20170;-58
2023/08/27 11:06:34;;;;;;;4.57;1.60;;;19.70;99.90;;;;;;5022925;28;20041;-59
2023/08/27 11:09:00;;;;;;;5.45;1.50;;;19.60;99.90;;;;;;5015117;28;20026;-57
2023/08/27 11:11:26;;;;;;;6.88;1.65;;;19.60;99.90;;;;;;5021681;28;20090;-59
2023/08/27 11:14:06;;;;;;;8.10;2.38;;;19.60;99.90;;;;;;5026130;28;20033;-58
2023/08/27 11:16:31;;;;;;;5.70;1.63;;;19.60;99.90;;;;;;5013664;28;20061;-58
2023/08/27 11:18:57;;;;;;;7.13;1.52;;;19.60;99.90;;;;;;5022127;28;20045;-58
2023/08/27 11:21:25;;;;;;;10.45;2.10;;;19.50;99.90;;;;;;5022989;28;20048;-57
2023/08/27 11:24:21;;;;;;;4.78;1.30;;;19.60;99.90;;;;;;5018629;28;20037;-58
2023/08/27 11:26:48;;;;;;;7.95;2.08;;;19.70;99.90;;;;;;5012946;28;20044;-58
2023/08/27 11:29:15;;;;;;;11.38;1.92;;;19.80;99.90;;;;;;5015575;28;20029;-58
2023/08/27 11:31:41;;;;;;;8.00;1.50;;;19.90;99.90;;;;;;5014309;28;20171;-59
2023/08/27 11:34:12;;;;;;;5.10;1.63;;;20.00;99.90;;;;;;5011703;28;20526;-58
2023/08/27 11:36:40;;;;;;;7.70;1.80;;;20.10;99.90;;;;;;5019722;28;20406;-59
2023/08/27 11:39:05;;;;;;;3.85;1.50;;;20.20;99.90;;;;;;5016823;28;20116;-58
2023/08/27 11:41:39;;;;;;;5.55;1.60;;;20.20;99.90;;;;;;5020745;28;20061;-59
2023/08/27 11:44:06;;;;;;;6.50;1.50;;;20.30;99.90;;;;;;5016598;28;20144;-59
2023/08/27 11:46:33;;;;;;;6.68;1.70;;;20.40;99.90;;;;;;5022902;28;20030;-59
2023/08/27 11:48:59;;;;;;;11.18;2.22;;;20.50;99.90;;;;;;5015638;28;20037;-58
2023/08/27 11:51:25;;;;;;;6.18;1.75;;;20.50;99.90;;;;;;5015738;28;20116;-58
2023/08/27 11:53:52;;;;;;;7.15;2.28;;;20.40;99.90;;;;;;5019028;28;20048;-58
2023/08/27 11:56:18;;;;;;;6.35;1.60;;;20.40;99.90;;;;;;5014590;28;20049;-57
2023/08/27 11:58:55;;;;;;;6.32;1.70;;;20.50;99.90;;;;;;5014973;28;20045;-57
2023/08/27 12:01:21;;;;;;;6.57;2.15;;;20.60;99.90;;;;;;5008745;28;20033;-56
2023/08/27 12:03:51;;;;;;;6.45;1.98;;;20.60;99.90;;;;;;5012915;28;20073;-57
2023/08/27 12:06:24;;;;;;;5.72;1.50;;;20.70;99.90;;;;;;5023082;28;20239;-57
2023/08/27 12:08:51;;;;;;;4.18;1.50;;;20.60;99.90;;;;;;5026869;28;20091;-57
2023/08/27 12:11:18;;;;;;;5.35;1.60;;;20.60;99.90;;;;;;5022473;28;20068;-56
2023/08/27 12:13:47;;;;;;;4.22;1.40;;;20.70;99.90;;;;;;5030879;28;20465;-58
2023/08/27 12:16:14;;;;;;;3.83;1.40;;;20.60;99.90;;;;;;5022470;28;20045;-55
2023/08/27 12:18:44;;;;;;;4.22;1.80;;;20.60;99.90;;;;;;5023892;28;20060;-57
2023/08/27 12:21:09;;;;;;;7.63;1.58;;;20.70;99.90;;;;;;5024287;28;20408;-55
2023/08/27 12:23:35;;;;;;;9.13;1.88;;;20.80;99.90;;;;;;5025020;28;20085;-56
2023/08/27 12:26:02;;;;;;;4.28;1.45;;;20.80;99.90;;;;;;5029175;28;20133;-55
2023/08/27 12:28:28;;;;;;;5.55;1.67;;;21.00;99.90;;;;;;5033714;28;20140;-56
2023/08/27 12:30:58;;;;;;;5.82;1.60;;;21.10;99.90;;;;;;5022817;28;20087;-57
2023/08/27 12:33:40;;;;;;;5.07;1.70;;;21.00;99.90;;;;;;5016822;28;20477;-56
2023/08/27 12:36:08;;;;;;;5.75;1.60;;;21.00;99.90;;;;;;5021643;28;20060;-54
2023/08/27 12:38:34;;;;;;;5.35;1.60;;;20.90;99.90;;;;;;5020822;28;20136;-55
2023/08/27 12:41:00;;;;;;;5.60;1.65;;;20.90;99.90;;;;;;5014737;28;20033;-55
2023/08/27 12:43:26;;;;;;;7.55;1.65;;;20.90;99.90;;;;;;5021743;28;20465;-57